createdAt,value
2022-12-15T00:00:03.853Z,0.22
2022-12-15T00:00:34.334Z,-0.06
2022-12-15T00:01:04.775Z,-0.18
2022-12-15T00:01:35.191Z,-0.21
2022-12-15T00:02:05.619Z,-0.26
2022-12-15T00:02:36.100Z,-0.22
2022-12-15T00:03:06.607Z,-0.24
2022-12-15T00:03:37.405Z,-0.25
2022-12-15T00:04:07.947Z,-0.14
2022-12-15T00:04:38.200Z,-0.05
2022-12-15T00:05:08.485Z,-0.02
2022-12-15T00:05:38.770Z,-0.02
2022-12-15T00:06:10.034Z,0.05
2022-12-15T00:06:40.307Z,-0.09
2022-12-15T00:07:10.715Z,0.01
2022-12-15T00:07:40.925Z,-0.06
2022-12-15T00:08:11.182Z,-0.08
2022-12-15T00:08:41.577Z,-0.13
2022-12-15T00:09:14.506Z,-0.28
2022-12-15T00:09:45.437Z,-0.33
2022-12-15T00:10:15.861Z,-0.44
2022-12-15T00:10:46.095Z,-0.59
2022-12-15T00:11:16.359Z,-0.85
2022-12-15T00:11:46.755Z,-0.90
2022-12-15T00:12:17.153Z,-0.86
2022-12-15T00:12:47.678Z,-0.89
2022-12-15T00:13:18.607Z,-0.97
2022-12-15T00:13:48.979Z,-0.95
2022-12-15T00:14:19.430Z,-0.84
2022-12-15T00:14:49.706Z,-0.77
2022-12-15T00:15:19.915Z,-0.61
2022-12-15T00:15:50.210Z,-0.49
2022-12-15T00:16:20.526Z,-0.39
2022-12-15T00:16:50.742Z,-0.31
2022-12-15T00:17:21.010Z,-0.22
2022-12-15T00:17:51.335Z,-0.16
2022-12-15T00:18:25.057Z,-0.14
2022-12-15T00:18:55.311Z,-0.42
2022-12-15T00:19:25.644Z,-0.61
2022-12-15T00:19:55.827Z,-0.58
2022-12-15T00:20:26.717Z,-0.58
2022-12-15T00:20:57.048Z,-0.64
2022-12-15T00:21:27.511Z,-0.83
2022-12-15T00:21:57.892Z,-0.92
2022-12-15T00:22:28.349Z,-0.90
2022-12-15T00:22:58.645Z,-1.03
2022-12-15T00:23:31.275Z,-1.16
2022-12-15T00:24:02.365Z,-1.31
2022-12-15T00:24:32.674Z,-1.31
2022-12-15T00:25:03.091Z,-1.41
2022-12-15T00:25:33.603Z,-1.33
2022-12-15T00:26:03.978Z,-1.14
2022-12-15T00:26:34.326Z,-0.94
2022-12-15T00:27:04.784Z,-0.75
2022-12-15T00:27:35.080Z,-0.62
2022-12-15T00:28:05.352Z,-0.48
2022-12-15T00:28:35.571Z,-0.37
2022-12-15T00:29:05.883Z,-0.27
2022-12-15T00:29:36.074Z,-0.19
2022-12-15T00:30:06.453Z,-0.16
2022-12-15T00:30:36.731Z,-0.24
2022-12-15T00:31:07.174Z,-0.30
2022-12-15T00:31:37.807Z,-0.42
2022-12-15T00:32:08.222Z,-0.33
2022-12-15T00:32:38.560Z,-0.46
2022-12-15T00:33:09.454Z,-0.54
2022-12-15T00:33:39.836Z,-0.54
2022-12-15T00:34:10.115Z,-0.55
2022-12-15T00:34:40.505Z,-0.69
2022-12-15T00:35:10.912Z,-0.68
2022-12-15T00:35:41.251Z,-0.65
2022-12-15T00:36:11.822Z,-0.70
2022-12-15T00:36:42.147Z,-0.76
2022-12-15T00:37:12.899Z,-0.70
2022-12-15T00:37:43.198Z,-0.61
2022-12-15T00:38:13.456Z,-0.58
2022-12-15T00:38:42.135Z,-0.48
2022-12-15T00:38:54.845Z,-0.43
2022-12-15T00:39:08.054Z,-0.36
2022-12-15T00:39:19.946Z,-0.34
2022-12-15T00:39:31.854Z,-0.30
2022-12-15T00:39:43.830Z,-0.27
2022-12-15T00:39:58.806Z,-0.26
2022-12-15T00:40:11.515Z,-0.26
2022-12-15T00:40:23.444Z,-0.24
2022-12-15T00:40:35.372Z,-0.23
2022-12-15T00:40:47.277Z,-0.19
2022-12-15T00:41:03.458Z,-0.18
2022-12-15T00:41:17.970Z,-0.15
2022-12-15T00:41:29.882Z,-0.14
2022-12-15T00:41:42.158Z,-0.09
2022-12-15T00:41:54.054Z,-0.06
2022-12-15T00:42:07.503Z,-0.04
2022-12-15T00:42:19.454Z,-0.02
2022-12-15T00:42:31.393Z,0.03
2022-12-15T00:42:43.318Z,0.03
2022-12-15T00:42:55.250Z,0.04
2022-12-15T00:43:11.743Z,0.05
2022-12-15T00:43:23.627Z,0.08
2022-12-15T00:43:36.705Z,0.10
2022-12-15T00:43:48.729Z,0.12
2022-12-15T00:44:00.604Z,0.15
2022-12-15T00:44:17.246Z,0.17
2022-12-15T00:44:32.394Z,0.17
2022-12-15T00:44:44.264Z,0.16
2022-12-15T00:44:57.068Z,0.17
2022-12-15T00:45:09.385Z,0.15
2022-12-15T00:45:21.303Z,0.17
2022-12-15T00:45:51.959Z,0.18
2022-12-15T00:46:23.705Z,0.21
2022-12-15T00:46:54.328Z,0.24
2022-12-15T00:47:06.589Z,0.21
2022-12-15T00:47:18.628Z,0.20
2022-12-15T00:47:33.205Z,0.23
2022-12-15T00:47:45.086Z,0.23
2022-12-15T00:47:56.962Z,0.24
2022-12-15T00:48:08.850Z,0.22
2022-12-15T00:48:20.742Z,0.21
2022-12-15T00:48:32.631Z,0.20
2022-12-15T00:48:44.619Z,0.20
2022-12-15T00:48:57.087Z,0.20
2022-12-15T00:49:29.007Z,0.22
2022-12-15T00:49:59.197Z,0.26
2022-12-15T00:50:29.555Z,0.26
2022-12-15T00:50:53.292Z,0.26
2022-12-15T00:51:05.327Z,0.25
2022-12-15T00:51:18.145Z,0.25
2022-12-15T00:51:48.506Z,0.24
2022-12-15T00:52:18.881Z,0.27
2022-12-15T00:52:49.131Z,0.31
2022-12-15T00:53:19.661Z,0.35
2022-12-15T00:53:50.011Z,0.36
2022-12-15T00:54:20.330Z,0.42
2022-12-15T00:54:50.660Z,0.46
2022-12-15T00:55:22.460Z,0.47
2022-12-15T00:55:52.896Z,0.49
2022-12-15T00:56:23.690Z,0.51
2022-12-15T00:56:54.046Z,0.56
2022-12-15T00:57:24.397Z,0.58
2022-12-15T00:57:54.892Z,0.61
2022-12-15T00:58:25.372Z,0.62
2022-12-15T00:58:55.726Z,0.63
2022-12-15T00:59:26.700Z,0.66
2022-12-15T00:59:56.991Z,0.67
2022-12-15T01:00:28.803Z,0.72
2022-12-15T01:00:59.188Z,0.74
2022-12-15T01:01:30.073Z,0.75
2022-12-15T01:02:01.068Z,0.78
2022-12-15T01:02:31.587Z,0.79
2022-12-15T01:03:02.312Z,0.76
2022-12-15T01:03:38.773Z,0.75
2022-12-15T01:04:09.426Z,0.79
2022-12-15T01:04:39.856Z,0.83
2022-12-15T01:05:10.125Z,0.86
2022-12-15T01:05:40.496Z,0.87
2022-12-15T01:06:10.874Z,0.90
2022-12-15T01:06:41.795Z,0.92
2022-12-15T01:07:12.083Z,0.91
2022-12-15T01:07:42.444Z,0.82
2022-12-15T01:08:12.687Z,0.70
2022-12-15T01:08:42.893Z,0.63
2022-12-15T01:09:13.062Z,0.60
2022-12-15T01:09:43.379Z,0.58
2022-12-15T01:10:13.662Z,0.58
2022-12-15T01:10:43.927Z,0.58
2022-12-15T01:11:19.035Z,0.55
2022-12-15T01:11:49.341Z,0.53
2022-12-15T01:12:19.557Z,0.54
2022-12-15T01:12:50.227Z,0.51
2022-12-15T01:13:21.387Z,0.50
2022-12-15T01:13:51.745Z,0.54
2022-12-15T01:14:22.051Z,0.57
2022-12-15T01:14:53.262Z,0.61
2022-12-15T01:15:23.980Z,0.66
2022-12-15T01:15:55.685Z,0.62
2022-12-15T01:16:30.977Z,0.66
2022-12-15T01:17:01.260Z,0.64
2022-12-15T01:17:32.505Z,0.62
2022-12-15T01:18:02.884Z,0.60
2022-12-15T01:18:33.651Z,0.66
2022-12-15T01:19:03.850Z,0.68
2022-12-15T01:19:34.069Z,0.66
2022-12-15T01:20:04.287Z,0.69
2022-12-15T01:20:19.433Z,0.68
2022-12-15T01:20:34.532Z,0.65
2022-12-15T01:21:01.763Z,0.62
2022-12-15T01:21:13.985Z,0.57
2022-12-15T01:21:25.931Z,0.59
2022-12-15T01:21:37.863Z,0.57
2022-12-15T01:21:49.860Z,0.55
2022-12-15T01:22:01.787Z,0.58
2022-12-15T01:22:13.761Z,0.58
2022-12-15T01:22:25.748Z,0.57
2022-12-15T01:22:38.799Z,0.59
2022-12-15T01:23:10.674Z,0.58
2022-12-15T01:23:22.668Z,0.59
2022-12-15T01:23:35.958Z,0.59
2022-12-15T01:23:47.863Z,0.58
2022-12-15T01:23:59.904Z,0.58
2022-12-15T01:24:11.803Z,0.61
2022-12-15T01:24:24.389Z,0.61
2022-12-15T01:24:36.323Z,0.61
2022-12-15T01:24:48.215Z,0.58
2022-12-15T01:25:00.131Z,0.58
2022-12-15T01:25:12.751Z,0.57
2022-12-15T01:25:25.578Z,0.57
2022-12-15T01:25:39.349Z,0.57
2022-12-15T01:25:52.207Z,0.53
2022-12-15T01:26:05.551Z,0.50
2022-12-15T01:26:17.471Z,0.51
2022-12-15T01:26:29.366Z,0.57
2022-12-15T01:26:41.516Z,0.55
2022-12-15T01:26:53.469Z,0.55
2022-12-15T01:27:05.384Z,0.56
2022-12-15T01:27:17.522Z,0.58
2022-12-15T01:27:29.411Z,0.60
2022-12-15T01:27:41.529Z,0.61
2022-12-15T01:27:53.663Z,0.63
2022-12-15T01:28:05.627Z,0.63
2022-12-15T01:28:19.222Z,0.64
2022-12-15T01:28:31.513Z,0.64
2022-12-15T01:28:43.414Z,0.68
2022-12-15T01:28:55.291Z,0.63
2022-12-15T01:29:07.888Z,0.63
2022-12-15T01:29:19.821Z,0.66
2022-12-15T01:29:31.738Z,0.63
2022-12-15T01:29:43.940Z,0.59
2022-12-15T01:29:55.828Z,0.58
2022-12-15T01:30:09.126Z,0.56
2022-12-15T01:30:26.254Z,0.55
2022-12-15T01:30:38.702Z,0.55
2022-12-15T01:30:51.547Z,0.54
2022-12-15T01:31:09.903Z,0.58
2022-12-15T01:31:21.902Z,0.50
2022-12-15T01:31:33.861Z,0.51
2022-12-15T01:31:46.155Z,0.51
2022-12-15T01:32:01.879Z,0.50
2022-12-15T01:32:13.878Z,0.52
2022-12-15T01:32:26.055Z,0.52
2022-12-15T01:32:42.712Z,0.51
2022-12-15T01:32:57.667Z,0.45
2022-12-15T01:33:09.554Z,0.45
2022-12-15T01:33:21.687Z,0.49
2022-12-15T01:33:33.864Z,0.51
2022-12-15T01:33:45.975Z,0.52
2022-12-15T01:33:57.883Z,0.50
2022-12-15T01:34:09.829Z,0.46
2022-12-15T01:34:22.625Z,0.49
2022-12-15T01:34:34.542Z,0.47
2022-12-15T01:34:46.522Z,0.41
2022-12-15T01:34:58.408Z,0.41
2022-12-15T01:35:11.258Z,0.38
2022-12-15T01:35:23.151Z,0.37
2022-12-15T01:35:35.091Z,0.36
2022-12-15T01:36:01.711Z,0.41
2022-12-15T01:36:14.194Z,0.38
2022-12-15T01:36:26.071Z,0.35
2022-12-15T01:36:37.950Z,0.37
2022-12-15T01:36:49.826Z,0.39
2022-12-15T01:37:01.749Z,0.35
2022-12-15T01:37:13.729Z,0.34
2022-12-15T01:37:25.651Z,0.33
2022-12-15T01:37:37.967Z,0.31
2022-12-15T01:37:50.325Z,0.31
2022-12-15T01:38:02.417Z,0.32
2022-12-15T01:38:14.363Z,0.31
2022-12-15T01:38:27.432Z,0.32
2022-12-15T01:38:39.369Z,0.37
2022-12-15T01:38:54.293Z,0.39
2022-12-15T01:39:06.518Z,0.38
2022-12-15T01:39:18.381Z,0.38
2022-12-15T01:39:50.271Z,0.35
2022-12-15T01:40:21.073Z,0.39
2022-12-15T01:40:44.969Z,0.41
2022-12-15T01:41:03.414Z,0.37
2022-12-15T01:41:15.682Z,0.37
2022-12-15T01:41:27.919Z,0.37
2022-12-15T01:41:39.962Z,0.41
2022-12-15T01:41:51.854Z,0.36
2022-12-15T01:42:03.851Z,0.41
2022-12-15T01:42:15.895Z,0.44
2022-12-15T01:42:27.914Z,0.44
2022-12-15T01:42:39.962Z,0.46
2022-12-15T01:42:52.767Z,0.46
2022-12-15T01:43:11.373Z,0.50
2022-12-15T01:43:26.777Z,0.53
2022-12-15T01:43:40.232Z,0.55
2022-12-15T01:43:52.222Z,0.57
2022-12-15T01:44:19.226Z,0.61
2022-12-15T01:44:31.118Z,0.63
2022-12-15T01:44:47.189Z,0.62
2022-12-15T01:45:23.715Z,0.69
2022-12-15T01:45:47.495Z,0.72
2022-12-15T01:46:03.681Z,0.75
2022-12-15T01:46:19.035Z,0.77
2022-12-15T01:46:31.090Z,0.76
2022-12-15T01:46:43.193Z,0.76
2022-12-15T01:46:56.324Z,0.77
2022-12-15T01:47:13.590Z,0.77
2022-12-15T01:47:27.774Z,0.78
2022-12-15T01:47:39.790Z,0.77
2022-12-15T01:47:54.959Z,0.76
2022-12-15T01:48:12.624Z,0.77
2022-12-15T01:48:45.662Z,0.78
2022-12-15T01:49:11.763Z,0.79
2022-12-15T01:49:28.258Z,0.84
2022-12-15T01:49:42.093Z,0.86
2022-12-15T01:49:54.907Z,0.86
2022-12-15T01:50:13.744Z,0.88
2022-12-15T01:50:27.627Z,0.88
2022-12-15T01:50:44.721Z,0.88
2022-12-15T01:50:59.655Z,0.89
2022-12-15T01:51:35.200Z,0.90
2022-12-15T01:51:50.571Z,0.95
2022-12-15T01:52:06.196Z,0.97
2022-12-15T01:52:18.321Z,0.96
2022-12-15T01:52:30.672Z,0.97
2022-12-15T01:52:43.066Z,0.97
2022-12-15T01:52:58.804Z,0.99
2022-12-15T01:53:12.358Z,0.99
2022-12-15T01:53:24.628Z,1.01
2022-12-15T01:54:01.941Z,1.06
2022-12-15T01:54:18.739Z,1.08
2022-12-15T01:54:33.266Z,1.09
2022-12-15T01:54:53.940Z,1.11
2022-12-15T01:55:06.635Z,1.11
2022-12-15T01:55:20.669Z,1.11
2022-12-15T01:55:33.190Z,1.13
2022-12-15T01:55:48.028Z,1.13
2022-12-15T01:56:05.041Z,1.14
2022-12-15T01:56:18.832Z,1.14
2022-12-15T01:56:37.891Z,1.14
2022-12-15T01:56:54.971Z,1.14
2022-12-15T01:57:14.350Z,1.14
2022-12-15T01:57:31.146Z,1.11
2022-12-15T01:57:43.568Z,1.10
2022-12-15T01:57:59.283Z,1.12
2022-12-15T01:58:15.167Z,1.13
2022-12-15T01:58:27.771Z,1.13
2022-12-15T01:58:43.612Z,1.10
2022-12-15T01:59:01.987Z,1.07
2022-12-15T01:59:21.501Z,1.07
2022-12-15T01:59:38.857Z,1.08
2022-12-15T01:59:54.273Z,1.08
2022-12-15T02:00:08.290Z,1.10
2022-12-15T02:00:20.234Z,1.11
2022-12-15T02:00:32.517Z,1.11
2022-12-15T02:00:44.803Z,1.14
2022-12-15T02:00:57.480Z,1.13
2022-12-15T02:01:10.436Z,1.15
2022-12-15T02:01:22.784Z,1.16
2022-12-15T02:01:35.199Z,1.15
2022-12-15T02:01:49.815Z,1.16
2022-12-15T02:02:03.045Z,1.17
2022-12-15T02:02:16.317Z,1.14
2022-12-15T02:02:32.398Z,1.14
2022-12-15T02:02:47.843Z,1.13
2022-12-15T02:03:01.747Z,1.10
2022-12-15T02:03:14.398Z,1.03
2022-12-15T02:03:26.425Z,0.92
2022-12-15T02:03:39.719Z,0.83
2022-12-15T02:03:51.617Z,0.83
2022-12-15T02:04:03.891Z,0.79
2022-12-15T02:04:19.437Z,0.83
2022-12-15T02:04:32.427Z,0.84
2022-12-15T02:04:45.792Z,0.85
2022-12-15T02:04:59.981Z,0.83
2022-12-15T02:05:12.025Z,0.84
2022-12-15T02:05:24.612Z,0.77
2022-12-15T02:05:37.541Z,0.76
2022-12-15T02:05:49.697Z,0.75
2022-12-15T02:06:02.903Z,0.76
2022-12-15T02:06:15.673Z,0.73
2022-12-15T02:06:29.385Z,0.71
2022-12-15T02:06:41.343Z,0.71
2022-12-15T02:06:53.373Z,0.70
2022-12-15T02:07:05.302Z,0.71
2022-12-15T02:07:17.914Z,0.61
2022-12-15T02:07:29.834Z,0.64
2022-12-15T02:07:42.730Z,0.43
2022-12-15T02:07:54.756Z,0.35
2022-12-15T02:08:07.383Z,0.35
2022-12-15T02:08:19.493Z,0.31
2022-12-15T02:08:31.750Z,0.32
2022-12-15T02:08:46.908Z,0.30
2022-12-15T02:09:00.841Z,0.34
2022-12-15T02:09:13.196Z,0.26
2022-12-15T02:09:27.164Z,0.29
2022-12-15T02:09:39.916Z,0.30
2022-12-15T02:09:55.795Z,0.35
2022-12-15T02:10:10.197Z,0.37
2022-12-15T02:10:28.891Z,0.42
2022-12-15T02:11:18.560Z,0.49
2022-12-15T02:11:53.740Z,0.58
2022-12-15T02:12:30.029Z,0.61
2022-12-15T02:12:41.906Z,0.51
2022-12-15T02:13:19.820Z,0.45
2022-12-15T02:14:06.179Z,0.46
2022-12-15T02:14:53.421Z,0.36
2022-12-15T02:15:17.288Z,0.31
2022-12-15T02:15:40.925Z,0.31
2022-12-15T02:16:18.772Z,0.32
2022-12-15T02:16:41.332Z,0.35
2022-12-15T02:17:22.051Z,0.39
2022-12-15T02:17:44.443Z,0.46
2022-12-15T02:18:01.940Z,0.46
2022-12-15T02:18:27.562Z,0.47
2022-12-15T02:19:18.045Z,0.49
2022-12-15T02:20:00.026Z,0.54
2022-12-15T02:20:40.653Z,0.37
2022-12-15T02:21:02.509Z,0.29
2022-12-15T02:21:38.940Z,0.26
2022-12-15T02:22:06.586Z,0.25
2022-12-15T02:22:29.562Z,0.22
2022-12-15T02:22:58.157Z,-0.18
2022-12-15T02:23:40.872Z,-0.25
2022-12-15T02:24:13.560Z,-0.25
2022-12-15T02:24:55.444Z,-0.23
2022-12-15T02:25:23.133Z,-0.24
2022-12-15T02:25:53.463Z,-0.17
2022-12-15T02:26:29.886Z,-0.20
2022-12-15T02:27:18.437Z,-0.26
2022-12-15T02:27:34.211Z,-0.25
2022-12-15T02:28:04.177Z,-0.21
2022-12-15T02:28:45.329Z,-0.22
2022-12-15T02:29:09.078Z,-0.19
2022-12-15T02:29:35.944Z,-0.16
2022-12-15T02:30:15.484Z,-0.11
2022-12-15T02:31:34.238Z,-0.11
2022-12-15T02:32:07.134Z,-0.04
2022-12-15T02:32:25.884Z,-0.19
2022-12-15T02:32:48.078Z,-0.22
2022-12-15T02:33:13.295Z,-0.22
2022-12-15T02:33:28.210Z,-0.29
2022-12-15T02:33:52.809Z,-0.25
2022-12-15T02:34:26.802Z,-0.22
2022-12-15T02:34:47.871Z,-0.18
2022-12-15T02:35:12.330Z,-0.15
2022-12-15T02:35:41.194Z,-0.27
2022-12-15T02:35:57.982Z,-0.31
2022-12-15T02:36:18.313Z,-0.36
2022-12-15T02:36:37.447Z,-0.35
2022-12-15T02:36:55.542Z,-0.31
2022-12-15T02:37:16.298Z,-0.38
2022-12-15T02:37:34.558Z,-0.36
2022-12-15T02:37:49.883Z,-0.33
2022-12-15T02:38:02.407Z,-0.33
2022-12-15T02:38:14.379Z,-0.47
2022-12-15T02:38:34.610Z,-0.42
2022-12-15T02:38:46.616Z,-0.39
2022-12-15T02:38:58.521Z,-0.38
2022-12-15T02:39:13.993Z,-0.34
2022-12-15T02:39:26.406Z,-0.32
2022-12-15T02:39:38.353Z,-0.28
2022-12-15T02:39:50.352Z,-0.27
2022-12-15T02:40:03.942Z,-0.25
2022-12-15T02:40:15.880Z,-0.26
2022-12-15T02:40:27.840Z,-0.25
2022-12-15T02:40:40.030Z,-0.24
2022-12-15T02:40:58.429Z,-0.21
2022-12-15T02:41:34.478Z,-0.21
2022-12-15T02:41:48.952Z,-0.17
2022-12-15T02:42:00.908Z,-0.13
2022-12-15T02:42:13.685Z,-0.08
2022-12-15T02:42:28.779Z,-0.06
2022-12-15T02:42:47.700Z,-0.02
2022-12-15T02:43:03.930Z,0.03
2022-12-15T02:43:18.293Z,0.06
2022-12-15T02:43:34.416Z,0.10
2022-12-15T02:43:46.732Z,0.13
2022-12-15T02:44:15.528Z,0.21
2022-12-15T02:44:51.154Z,0.17
2022-12-15T02:45:05.450Z,0.22
2022-12-15T02:45:23.721Z,0.24
2022-12-15T02:45:47.834Z,0.28
2022-12-15T02:46:28.621Z,0.31
2022-12-15T02:46:58.897Z,0.37
2022-12-15T02:47:19.687Z,0.41
2022-12-15T02:47:40.186Z,0.47
2022-12-15T02:47:58.118Z,0.48
2022-12-15T02:48:28.978Z,0.50
2022-12-15T02:48:59.823Z,0.21
2022-12-15T02:49:35.770Z,0.18
2022-12-15T02:50:11.352Z,-0.09
2022-12-15T02:51:00.453Z,-0.27
2022-12-15T02:51:34.017Z,-0.26
2022-12-15T02:52:19.071Z,-0.06
2022-12-15T02:52:30.949Z,0.05
2022-12-15T02:53:06.687Z,0.09
2022-12-15T02:53:33.776Z,0.19
2022-12-15T02:54:07.194Z,0.21
2022-12-15T02:54:28.724Z,0.20
2022-12-15T02:55:03.276Z,0.12
2022-12-15T02:55:21.229Z,0.11
2022-12-15T02:55:43.563Z,0.09
2022-12-15T02:56:01.007Z,0.05
2022-12-15T02:56:18.562Z,-0.02
2022-12-15T02:56:48.783Z,0.02
2022-12-15T02:57:11.388Z,-0.02
2022-12-15T02:57:34.122Z,0.04
2022-12-15T02:58:05.625Z,0.12
2022-12-15T02:58:45.214Z,0.19
2022-12-15T02:59:42.807Z,0.27
2022-12-15T03:00:04.765Z,0.23
2022-12-15T03:00:17.616Z,0.13
2022-12-15T03:00:33.005Z,0.08
2022-12-15T03:00:50.449Z,0.11
2022-12-15T03:01:16.580Z,0.13
2022-12-15T03:01:37.965Z,0.16
2022-12-15T03:01:56.480Z,0.20
2022-12-15T03:02:12.343Z,0.19
2022-12-15T03:02:28.806Z,0.17
2022-12-15T03:02:46.266Z,0.11
2022-12-15T03:02:59.534Z,-0.02
2022-12-15T03:03:20.111Z,-0.06
2022-12-15T03:03:35.054Z,-0.02
2022-12-15T03:03:49.846Z,-0.07
2022-12-15T03:04:05.166Z,-0.02
2022-12-15T03:04:19.160Z,-0.11
2022-12-15T03:04:33.737Z,-0.08
2022-12-15T03:04:45.706Z,-0.03
2022-12-15T03:04:58.924Z,0.02
2022-12-15T03:05:13.038Z,0.00
2022-12-15T03:05:25.686Z,-0.03
2022-12-15T03:05:37.831Z,-0.06
2022-12-15T03:05:54.635Z,0.03
2022-12-15T03:06:06.875Z,0.03
2022-12-15T03:06:19.681Z,0.05
2022-12-15T03:06:31.609Z,-0.14
2022-12-15T03:06:43.665Z,-0.24
2022-12-15T03:07:00.884Z,-0.22
2022-12-15T03:07:14.158Z,-0.12
2022-12-15T03:07:27.898Z,-0.05
2022-12-15T03:07:42.622Z,0.00
2022-12-15T03:07:54.817Z,0.02
2022-12-15T03:08:06.800Z,-0.06
2022-12-15T03:08:20.997Z,-0.07
2022-12-15T03:08:32.906Z,-0.09
2022-12-15T03:08:44.791Z,-0.06
2022-12-15T03:08:56.680Z,-0.13
2022-12-15T03:09:08.590Z,-0.15
2022-12-15T03:09:20.514Z,-0.22
2022-12-15T03:09:32.905Z,-0.15
2022-12-15T03:09:44.836Z,-0.14
2022-12-15T03:09:59.897Z,-0.09
2022-12-15T03:10:13.994Z,-0.03
2022-12-15T03:10:26.208Z,0.02
2022-12-15T03:10:38.232Z,0.02
2022-12-15T03:10:53.272Z,0.06
2022-12-15T03:11:05.386Z,0.10
2022-12-15T03:11:17.279Z,0.14
2022-12-15T03:11:29.384Z,0.17
2022-12-15T03:11:41.282Z,0.19
2022-12-15T03:11:53.207Z,0.20
2022-12-15T03:12:05.532Z,0.21
2022-12-15T03:12:17.548Z,0.24
2022-12-15T03:12:29.828Z,0.29
2022-12-15T03:12:41.973Z,0.30
2022-12-15T03:12:58.877Z,0.28
2022-12-15T03:13:11.129Z,0.32
2022-12-15T03:13:24.183Z,0.33
2022-12-15T03:13:36.280Z,0.36
2022-12-15T03:13:49.920Z,0.36
2022-12-15T03:14:02.328Z,0.39
2022-12-15T03:14:14.647Z,0.35
2022-12-15T03:14:27.401Z,0.37
2022-12-15T03:14:39.471Z,0.39
2022-12-15T03:14:51.415Z,0.41
2022-12-15T03:15:04.553Z,0.43
2022-12-15T03:15:17.038Z,0.39
2022-12-15T03:15:33.539Z,0.34
2022-12-15T03:15:47.441Z,0.31
2022-12-15T03:16:01.047Z,0.22
2022-12-15T03:16:13.085Z,0.22
2022-12-15T03:16:25.109Z,0.19
2022-12-15T03:16:37.135Z,0.08
2022-12-15T03:16:49.166Z,0.04
2022-12-15T03:17:01.139Z,-0.04
2022-12-15T03:17:13.123Z,-0.08
2022-12-15T03:17:25.076Z,-0.09
2022-12-15T03:17:38.269Z,-0.17
2022-12-15T03:17:50.157Z,-0.21
2022-12-15T03:18:02.080Z,-0.19
2022-12-15T03:18:14.280Z,-0.14
2022-12-15T03:18:26.316Z,-0.19
2022-12-15T03:18:38.251Z,-0.15
2022-12-15T03:18:50.244Z,-0.13
2022-12-15T03:19:02.123Z,-0.12
2022-12-15T03:19:14.000Z,-0.08
2022-12-15T03:19:26.021Z,-0.06
2022-12-15T03:19:37.958Z,-0.05
2022-12-15T03:19:49.941Z,0.00
2022-12-15T03:20:02.314Z,0.04
2022-12-15T03:20:14.326Z,0.07
2022-12-15T03:20:26.215Z,0.10
2022-12-15T03:20:38.266Z,0.13
2022-12-15T03:20:50.214Z,0.16
2022-12-15T03:21:02.161Z,0.18
2022-12-15T03:21:14.099Z,0.21
2022-12-15T03:21:26.024Z,0.24
2022-12-15T03:21:37.975Z,0.27
2022-12-15T03:21:49.915Z,0.28
2022-12-15T03:22:02.093Z,0.29
2022-12-15T03:22:13.987Z,0.32
2022-12-15T03:22:26.265Z,0.34
2022-12-15T03:22:38.666Z,0.32
2022-12-15T03:22:50.574Z,0.34
2022-12-15T03:23:02.541Z,0.34
2022-12-15T03:23:14.555Z,0.37
2022-12-15T03:23:26.470Z,0.34
2022-12-15T03:23:38.523Z,0.24
2022-12-15T03:23:50.458Z,0.21
2022-12-15T03:24:02.396Z,0.24
2022-12-15T03:24:14.397Z,0.24
2022-12-15T03:24:26.330Z,0.17
2022-12-15T03:24:38.267Z,0.18
2022-12-15T03:24:50.186Z,0.17
2022-12-15T03:25:02.098Z,0.18
2022-12-15T03:25:14.141Z,0.19
2022-12-15T03:25:26.076Z,0.22
2022-12-15T03:25:38.006Z,0.22
2022-12-15T03:25:50.376Z,0.22
2022-12-15T03:26:02.351Z,0.21
2022-12-15T03:26:14.313Z,0.17
2022-12-15T03:26:26.187Z,0.13
2022-12-15T03:26:38.211Z,0.01
2022-12-15T03:26:50.331Z,-0.02
2022-12-15T03:27:02.817Z,0.03
2022-12-15T03:27:14.863Z,-0.06
2022-12-15T03:27:26.990Z,-0.08
2022-12-15T03:27:38.912Z,-0.10
2022-12-15T03:27:50.830Z,-0.17
2022-12-15T03:28:02.730Z,-0.13
2022-12-15T03:28:14.618Z,-0.15
2022-12-15T03:28:26.510Z,-0.14
2022-12-15T03:28:38.426Z,-0.12
2022-12-15T03:28:50.455Z,-0.11
2022-12-15T03:29:02.455Z,-0.12
2022-12-15T03:29:14.419Z,-0.16
2022-12-15T03:29:26.337Z,-0.12
2022-12-15T03:29:38.289Z,-0.15
2022-12-15T03:29:50.223Z,-0.14
2022-12-15T03:30:02.182Z,-0.18
2022-12-15T03:30:14.545Z,-0.18
2022-12-15T03:30:26.490Z,-0.19
2022-12-15T03:30:38.500Z,-0.17
2022-12-15T03:30:50.877Z,-0.15
2022-12-15T03:31:03.208Z,-0.14
2022-12-15T03:31:15.284Z,-0.11
2022-12-15T03:31:27.410Z,-0.08
2022-12-15T03:31:39.407Z,-0.03
2022-12-15T03:31:51.444Z,0.00
2022-12-15T03:32:03.699Z,0.03
2022-12-15T03:32:15.961Z,0.07
2022-12-15T03:32:28.223Z,0.09
2022-12-15T03:32:40.112Z,0.14
2022-12-15T03:32:52.049Z,0.15
2022-12-15T03:33:04.225Z,0.19
2022-12-15T03:33:16.433Z,0.21
2022-12-15T03:33:28.662Z,0.24
2022-12-15T03:33:40.966Z,0.24
2022-12-15T03:33:53.008Z,0.26
2022-12-15T03:34:04.945Z,0.28
2022-12-15T03:34:17.231Z,0.32
2022-12-15T03:34:29.160Z,0.34
2022-12-15T03:34:41.812Z,0.37
2022-12-15T03:34:53.697Z,0.39
2022-12-15T03:35:06.226Z,0.43
2022-12-15T03:35:18.217Z,0.44
2022-12-15T03:35:30.601Z,0.47
2022-12-15T03:35:42.543Z,0.48
2022-12-15T03:35:54.477Z,0.51
2022-12-15T03:36:06.782Z,0.53
2022-12-15T03:36:18.707Z,0.56
2022-12-15T03:36:30.639Z,0.57
2022-12-15T03:36:43.060Z,0.59
2022-12-15T03:36:54.934Z,0.60
2022-12-15T03:37:06.845Z,0.61
2022-12-15T03:37:18.779Z,0.62
2022-12-15T03:37:30.695Z,0.63
2022-12-15T03:37:42.973Z,0.64
2022-12-15T03:37:54.866Z,0.65
2022-12-15T03:38:07.085Z,0.66
2022-12-15T03:38:19.063Z,0.66
2022-12-15T03:38:31.061Z,0.69
2022-12-15T03:38:42.991Z,0.70
2022-12-15T03:38:54.915Z,0.73
2022-12-15T03:39:06.851Z,0.71
2022-12-15T03:39:18.759Z,0.71
2022-12-15T03:39:30.703Z,0.72
2022-12-15T03:39:42.576Z,0.71
2022-12-15T03:39:54.513Z,0.74
2022-12-15T03:40:07.529Z,0.74
2022-12-15T03:40:19.586Z,0.73
2022-12-15T03:40:31.659Z,0.75
2022-12-15T03:40:43.550Z,0.74
2022-12-15T03:40:55.494Z,0.75
2022-12-15T03:41:07.377Z,0.78
2022-12-15T03:41:19.971Z,0.77
2022-12-15T03:41:31.899Z,0.79
2022-12-15T03:41:43.814Z,0.78
2022-12-15T03:41:55.748Z,0.81
2022-12-15T03:42:07.649Z,0.81
2022-12-15T03:42:39.534Z,0.81
2022-12-15T03:42:51.493Z,0.83
2022-12-15T03:43:03.432Z,0.82
2022-12-15T03:43:15.399Z,0.81
2022-12-15T03:43:27.505Z,0.74
2022-12-15T03:43:39.526Z,0.79
2022-12-15T03:43:51.453Z,0.80
2022-12-15T03:44:03.782Z,0.82
2022-12-15T03:44:15.726Z,0.79
2022-12-15T03:44:27.654Z,0.82
2022-12-15T03:44:39.596Z,0.80
2022-12-15T03:44:51.466Z,0.83
2022-12-15T03:45:03.940Z,0.79
2022-12-15T03:45:18.033Z,0.69
2022-12-15T03:45:29.973Z,0.61
2022-12-15T03:45:41.943Z,0.66
2022-12-15T03:45:54.011Z,0.64
2022-12-15T03:46:06.095Z,0.65
2022-12-15T03:46:18.172Z,0.62
2022-12-15T03:46:30.240Z,0.59
2022-12-15T03:46:42.158Z,0.57
2022-12-15T03:46:57.251Z,0.52
2022-12-15T03:47:13.291Z,0.46
2022-12-15T03:47:25.187Z,0.41
2022-12-15T03:47:41.779Z,0.35
2022-12-15T03:47:55.997Z,0.33
2022-12-15T03:48:07.889Z,0.20
2022-12-15T03:48:19.832Z,0.16
2022-12-15T03:48:31.720Z,0.14
2022-12-15T03:48:43.726Z,0.08
2022-12-15T03:48:55.710Z,0.04
2022-12-15T03:49:07.680Z,-0.01
2022-12-15T03:49:19.648Z,-0.04
2022-12-15T03:49:31.586Z,-0.05
2022-12-15T03:49:43.473Z,-0.02
2022-12-15T03:49:55.367Z,-0.04
2022-12-15T03:50:07.963Z,-0.14
2022-12-15T03:50:25.676Z,-0.08
2022-12-15T03:50:37.634Z,-0.08
2022-12-15T03:50:50.158Z,-0.07
2022-12-15T03:51:02.046Z,-0.12
2022-12-15T03:51:13.937Z,-0.16
2022-12-15T03:51:25.912Z,-0.19
2022-12-15T03:51:37.850Z,-0.20
2022-12-15T03:51:49.792Z,-0.23
2022-12-15T03:52:01.802Z,-0.24
2022-12-15T03:52:13.725Z,-0.22
2022-12-15T03:52:25.631Z,-0.25
2022-12-15T03:52:37.569Z,-0.24
2022-12-15T03:52:52.175Z,-0.35
2022-12-15T03:53:05.237Z,-0.41
2022-12-15T03:53:17.455Z,-0.43
2022-12-15T03:53:29.741Z,-0.39
2022-12-15T03:53:41.968Z,-0.35
2022-12-15T03:53:54.364Z,-0.31
2022-12-15T03:54:07.296Z,-0.29
2022-12-15T03:54:19.269Z,-0.30
2022-12-15T03:54:31.166Z,-0.24
2022-12-15T03:54:43.059Z,-0.21
2022-12-15T03:54:54.972Z,-0.23
2022-12-15T03:55:07.608Z,-0.24
2022-12-15T03:55:20.395Z,-0.19
2022-12-15T03:55:32.748Z,-0.18
2022-12-15T03:55:44.631Z,-0.16
2022-12-15T03:55:56.542Z,-0.17
2022-12-15T03:56:08.544Z,-0.13
2022-12-15T03:56:20.654Z,-0.08
2022-12-15T03:56:32.751Z,-0.08
2022-12-15T03:56:44.723Z,-0.12
2022-12-15T03:56:56.609Z,-0.16
2022-12-15T03:57:08.536Z,-0.14
2022-12-15T03:57:20.549Z,-0.14
2022-12-15T03:57:32.431Z,-0.17
2022-12-15T03:57:44.304Z,-0.17
2022-12-15T03:57:57.080Z,-0.20
2022-12-15T03:58:09.051Z,-0.24
2022-12-15T03:58:21.105Z,-0.28
2022-12-15T03:58:33.017Z,-0.29
2022-12-15T03:58:45.016Z,-0.27
2022-12-15T03:58:56.906Z,-0.30
2022-12-15T03:59:08.792Z,-0.31
2022-12-15T03:59:20.732Z,-0.33
2022-12-15T03:59:32.643Z,-0.32
2022-12-15T03:59:44.564Z,-0.31
2022-12-15T03:59:56.504Z,-0.30
2022-12-15T04:00:09.124Z,-0.31
2022-12-15T04:00:22.075Z,-0.32